sensor_id;sensor_type;location;lat;lon;timestamp;P1;durP1;ratioP1;P2;durP2;ratioP2
15169;SDS011;7685;47.406;8.540;2023-03-04T00:01:49;1.13;;;1.13;;
15169;SDS011;7685;47.406;8.540;2023-03-04T00:04:16;1.67;;;1.57;;
15169;SDS011;7685;47.406;8.540;2023-03-04T00:06:43;4.60;;;1.97;;
15169;SDS011;7685;47.406;8.540;2023-03-04T00:09:10;3.00;;;2.13;;
15169;SDS011;7685;47.406;8.540;2023-03-04T00:11:36;2.50;;;2.40;;
15169;SDS011;7685;47.406;8.540;2023-03-04T00:14:03;5.33;;;3.03;;
15169;SDS011;7685;47.406;8.540;2023-03-04T00:16:29;4.30;;;2.00;;
15169;SDS011;7685;47.406;8.540;2023-03-04T00:18:56;2.73;;;2.57;;
15169;SDS011;7685;47.406;8.540;2023-03-04T00:21:23;1.53;;;1.53;;
15169;SDS011;7685;47.406;8.540;2023-03-04T00:23:49;3.67;;;1.90;;
15169;SDS011;7685;47.406;8.540;2023-03-04T00:26:16;10.67;;;1.97;;
15169;SDS011;7685;47.406;8.540;2023-03-04T00:28:43;2.97;;;2.77;;
15169;SDS011;7685;47.406;8.540;2023-03-04T00:31:10;5.43;;;2.37;;
15169;SDS011;7685;47.406;8.540;2023-03-04T00:33:36;3.17;;;2.93;;
15169;SDS011;7685;47.406;8.540;2023-03-04T00:36:03;1.73;;;1.63;;
15169;SDS011;7685;47.406;8.540;2023-03-04T00:38:30;2.00;;;1.53;;
15169;SDS011;7685;47.406;8.540;2023-03-04T00:40:56;1.50;;;1.50;;
15169;SDS011;7685;47.406;8.540;2023-03-04T00:43:23;0.83;;;0.83;;
15169;SDS011;7685;47.406;8.540;2023-03-04T00:45:49;1.73;;;1.63;;
15169;SDS011;7685;47.406;8.540;2023-03-04T00:48:16;3.10;;;2.90;;
15169;SDS011;7685;47.406;8.540;2023-03-04T00:50:43;3.53;;;2.57;;
15169;SDS011;7685;47.406;8.540;2023-03-04T00:53:09;2.63;;;1.97;;
15169;SDS011;7685;47.406;8.540;2023-03-04T00:55:36;2.90;;;2.30;;
15169;SDS011;7685;47.406;8.540;2023-03-04T00:58:02;2.07;;;1.87;;
15169;SDS011;7685;47.406;8.540;2023-03-04T01:00:29;2.27;;;2.17;;
15169;SDS011;7685;47.406;8.540;2023-03-04T01:02:55;1.70;;;1.60;;
15169;SDS011;7685;47.406;8.540;2023-03-04T01:05:22;2.43;;;2.23;;
15169;SDS011;7685;47.406;8.540;2023-03-04T01:07:49;3.23;;;3.03;;
15169;SDS011;7685;47.406;8.540;2023-03-04T01:10:16;3.17;;;2.57;;
15169;SDS011;7685;47.406;8.540;2023-03-04T01:12:42;1.80;;;1.67;;
15169;SDS011;7685;47.406;8.540;2023-03-04T01:15:10;3.37;;;2.60;;
15169;SDS011;7685;47.406;8.540;2023-03-04T01:17:37;5.27;;;2.90;;
15169;SDS011;7685;47.406;8.540;2023-03-04T01:20:04;2.37;;;2.27;;
15169;SDS011;7685;47.406;8.540;2023-03-04T01:22:32;1.50;;;1.40;;
15169;SDS011;7685;47.406;8.540;2023-03-04T01:24:59;2.93;;;1.53;;
15169;SDS011;7685;47.406;8.540;2023-03-04T01:27:25;0.60;;;0.60;;
15169;SDS011;7685;47.406;8.540;2023-03-04T01:29:52;3.47;;;2.03;;
15169;SDS011;7685;47.406;8.540;2023-03-04T01:32:18;2.13;;;2.03;;
15169;SDS011;7685;47.406;8.540;2023-03-04T01:34:45;1.10;;;0.90;;
15169;SDS011;7685;47.406;8.540;2023-03-04T01:37:11;1.77;;;1.67;;
15169;SDS011;7685;47.406;8.540;2023-03-04T01:39:41;2.37;;;2.20;;
15169;SDS011;7685;47.406;8.540;2023-03-04T01:42:17;1.93;;;1.83;;
15169;SDS011;7685;47.406;8.540;2023-03-04T01:44:45;1.73;;;1.27;;
15169;SDS011;7685;47.406;8.540;2023-03-04T01:47:12;0.90;;;0.90;;
15169;SDS011;7685;47.406;8.540;2023-03-04T01:49:39;1.77;;;1.67;;
15169;SDS011;7685;47.406;8.540;2023-03-04T01:52:09;1.10;;;1.10;;
15169;SDS011;7685;47.406;8.540;2023-03-04T01:54:38;2.07;;;1.97;;
15169;SDS011;7685;47.406;8.540;2023-03-04T01:57:06;0.97;;;0.97;;
15169;SDS011;7685;47.406;8.540;2023-03-04T01:59:41;1.43;;;1.33;;
15169;SDS011;7685;47.406;8.540;2023-03-04T02:02:08;6.50;;;1.70;;
15169;SDS011;7685;47.406;8.540;2023-03-04T02:04:34;3.40;;;2.47;;
15169;SDS011;7685;47.406;8.540;2023-03-04T02:07:01;1.43;;;1.37;;
15169;SDS011;7685;47.406;8.540;2023-03-04T02:09:29;2.50;;;2.30;;
15169;SDS011;7685;47.406;8.540;2023-03-04T02:11:56;3.60;;;1.53;;
15169;SDS011;7685;47.406;8.540;2023-03-04T02:14:23;7.53;;;1.77;;
15169;SDS011;7685;47.406;8.540;2023-03-04T02:16:50;2.70;;;1.63;;
15169;SDS011;7685;47.406;8.540;2023-03-04T02:22:06;0.60;;;0.60;;
15169;SDS011;7685;47.406;8.540;2023-03-04T02:24:38;1.07;;;1.07;;
15169;SDS011;7685;47.406;8.540;2023-03-04T02:27:07;1.80;;;1.70;;
15169;SDS011;7685;47.406;8.540;2023-03-04T02:29:34;0.47;;;0.47;;
15169;SDS011;7685;47.406;8.540;2023-03-04T02:32:01;0.60;;;0.50;;
15169;SDS011;7685;47.406;8.540;2023-03-04T02:34:28;0.50;;;0.50;;
15169;SDS011;7685;47.406;8.540;2023-03-04T02:36:56;3.97;;;1.63;;
15169;SDS011;7685;47.406;8.540;2023-03-04T02:39:31;0.30;;;0.30;;
15169;SDS011;7685;47.406;8.540;2023-03-04T02:42:00;0.43;;;0.43;;
15169;SDS011;7685;47.406;8.540;2023-03-04T02:44:28;1.43;;;1.33;;
15169;SDS011;7685;47.406;8.540;2023-03-04T02:46:56;4.47;;;2.67;;
15169;SDS011;7685;47.406;8.540;2023-03-04T02:49:24;1.57;;;1.47;;
15169;SDS011;7685;47.406;8.540;2023-03-04T02:51:52;2.17;;;1.30;;
15169;SDS011;7685;47.406;8.540;2023-03-04T02:54:42;2.87;;;1.40;;
15169;SDS011;7685;47.406;8.540;2023-03-04T02:57:09;1.83;;;1.73;;
15169;SDS011;7685;47.406;8.540;2023-03-04T02:59:37;1.37;;;1.23;;
15169;SDS011;7685;47.406;8.540;2023-03-04T03:02:05;1.13;;;1.13;;
15169;SDS011;7685;47.406;8.540;2023-03-04T03:04:33;1.53;;;1.43;;
15169;SDS011;7685;47.406;8.540;2023-03-04T03:07:01;0.83;;;0.83;;
15169;SDS011;7685;47.406;8.540;2023-03-04T03:09:28;0.60;;;0.60;;
15169;SDS011;7685;47.406;8.540;2023-03-04T03:11:55;3.40;;;2.33;;
15169;SDS011;7685;47.406;8.540;2023-03-04T03:14:21;0.40;;;0.40;;
15169;SDS011;7685;47.406;8.540;2023-03-04T03:16:48;0.50;;;0.50;;
15169;SDS011;7685;47.406;8.540;2023-03-04T03:19:14;0.40;;;0.40;;
15169;SDS011;7685;47.406;8.540;2023-03-04T03:21:41;0.67;;;0.67;;
15169;SDS011;7685;47.406;8.540;2023-03-04T03:24:07;0.20;;;0.20;;
15169;SDS011;7685;47.406;8.540;2023-03-04T03:26:34;0.70;;;0.70;;
15169;SDS011;7685;47.406;8.540;2023-03-04T03:29:00;0.63;;;0.63;;
15169;SDS011;7685;47.406;8.540;2023-03-04T03:31:27;1.07;;;1.03;;
15169;SDS011;7685;47.406;8.540;2023-03-04T03:33:54;0.30;;;0.30;;
15169;SDS011;7685;47.406;8.540;2023-03-04T03:36:20;0.57;;;0.57;;
15169;SDS011;7685;47.406;8.540;2023-03-04T03:38:50;0.63;;;0.63;;
15169;SDS011;7685;47.406;8.540;2023-03-04T03:41:16;0.20;;;0.20;;
15169;SDS011;7685;47.406;8.540;2023-03-04T03:43:43;0.50;;;0.50;;
15169;SDS011;7685;47.406;8.540;2023-03-04T03:46:09;0.30;;;0.30;;
15169;SDS011;7685;47.406;8.540;2023-03-04T03:48:36;14.83;;;1.93;;
15169;SDS011;7685;47.406;8.540;2023-03-04T03:51:02;0.50;;;0.50;;
15169;SDS011;7685;47.406;8.540;2023-03-04T03:53:29;0.50;;;0.50;;
15169;SDS011;7685;47.406;8.540;2023-03-04T03:55:56;0.70;;;0.70;;
15169;SDS011;7685;47.406;8.540;2023-03-04T03:58:24;0.30;;;0.30;;
15169;SDS011;7685;47.406;8.540;2023-03-04T04:00:52;0.40;;;0.40;;
15169;SDS011;7685;47.406;8.540;2023-03-04T04:03:20;0.30;;;0.30;;
15169;SDS011;7685;47.406;8.540;2023-03-04T04:05:47;3.73;;;0.67;;
15169;SDS011;7685;47.406;8.540;2023-03-04T04:08:14;0.30;;;0.30;;
15169;SDS011;7685;47.406;8.540;2023-03-04T04:10:42;0.30;;;0.30;;
15169;SDS011;7685;47.406;8.540;2023-03-04T04:13:09;0.53;;;0.53;;
15169;SDS011;7685;47.406;8.540;2023-03-04T04:15:36;0.20;;;0.20;;
15169;SDS011;7685;47.406;8.540;2023-03-04T04:18:04;0.30;;;0.30;;
15169;SDS011;7685;47.406;8.540;2023-03-04T04:20:31;0.23;;;0.23;;
15169;SDS011;7685;47.406;8.540;2023-03-04T04:22:58;1.07;;;1.07;;
15169;SDS011;7685;47.406;8.540;2023-03-04T04:25:25;0.50;;;0.50;;
15169;SDS011;7685;47.406;8.540;2023-03-04T04:27:51;0.83;;;0.83;;
15169;SDS011;7685;47.406;8.540;2023-03-04T04:30:18;1.67;;;1.60;;
15169;SDS011;7685;47.406;8.540;2023-03-04T04:32:45;0.30;;;0.30;;
15169;SDS011;7685;47.406;8.540;2023-03-04T04:35:11;0.70;;;0.70;;
15169;SDS011;7685;47.406;8.540;2023-03-04T04:37:38;2.30;;;2.20;;
15169;SDS011;7685;47.406;8.540;2023-03-04T04:40:04;0.50;;;0.50;;
15169;SDS011;7685;47.406;8.540;2023-03-04T04:42:31;0.90;;;0.90;;
15169;SDS011;7685;47.406;8.540;2023-03-04T04:44:58;0.30;;;0.30;;
15169;SDS011;7685;47.406;8.540;2023-03-04T04:47:24;0.30;;;0.30;;
15169;SDS011;7685;47.406;8.540;2023-03-04T04:49:51;0.40;;;0.40;;
15169;SDS011;7685;47.406;8.540;2023-03-04T04:52:18;0.67;;;0.67;;
15169;SDS011;7685;47.406;8.540;2023-03-04T04:54:44;0.80;;;0.80;;
15169;SDS011;7685;47.406;8.540;2023-03-04T04:57:11;1.33;;;1.23;;
15169;SDS011;7685;47.406;8.540;2023-03-04T04:59:37;0.50;;;0.50;;
15169;SDS011;7685;47.406;8.540;2023-03-04T05:02:04;0.77;;;0.53;;
15169;SDS011;7685;47.406;8.540;2023-03-04T05:04:30;0.33;;;0.33;;
15169;SDS011;7685;47.406;8.540;2023-03-04T05:06:57;0.30;;;0.30;;
15169;SDS011;7685;47.406;8.540;2023-03-04T05:09:23;1.37;;;0.70;;
15169;SDS011;7685;47.406;8.540;2023-03-04T05:11:50;0.70;;;0.70;;
15169;SDS011;7685;47.406;8.540;2023-03-04T05:14:16;2.30;;;2.07;;
15169;SDS011;7685;47.406;8.540;2023-03-04T05:16:43;0.30;;;0.30;;
15169;SDS011;7685;47.406;8.540;2023-03-04T05:19:09;0.30;;;0.30;;
15169;SDS011;7685;47.406;8.540;2023-03-04T05:21:36;0.60;;;0.60;;
15169;SDS011;7685;47.406;8.540;2023-03-04T05:24:02;1.90;;;1.23;;
15169;SDS011;7685;47.406;8.540;2023-03-04T05:26:29;0.40;;;0.40;;
15169;SDS011;7685;47.406;8.540;2023-03-04T05:28:56;0.30;;;0.30;;
15169;SDS011;7685;47.406;8.540;2023-03-04T05:31:22;0.60;;;0.60;;
15169;SDS011;7685;47.406;8.540;2023-03-04T05:33:49;0.30;;;0.30;;
15169;SDS011;7685;47.406;8.540;2023-03-04T05:36:15;0.83;;;0.83;;
15169;SDS011;7685;47.406;8.540;2023-03-04T05:38:42;0.40;;;0.40;;
15169;SDS011;7685;47.406;8.540;2023-03-04T05:41:08;0.50;;;0.50;;
15169;SDS011;7685;47.406;8.540;2023-03-04T05:43:35;0.30;;;0.30;;
15169;SDS011;7685;47.406;8.540;2023-03-04T05:46:03;3.37;;;1.47;;
15169;SDS011;7685;47.406;8.540;2023-03-04T05:48:30;2.60;;;2.33;;
15169;SDS011;7685;47.406;8.540;2023-03-04T05:50:58;0.53;;;0.53;;
15169;SDS011;7685;47.406;8.540;2023-03-04T05:53:25;0.40;;;0.40;;
15169;SDS011;7685;47.406;8.540;2023-03-04T05:55:53;0.50;;;0.50;;
15169;SDS011;7685;47.406;8.540;2023-03-04T05:58:20;0.70;;;0.70;;
15169;SDS011;7685;47.406;8.540;2023-03-04T06:00:46;2.57;;;2.37;;
15169;SDS011;7685;47.406;8.540;2023-03-04T06:03:14;2.20;;;1.23;;
15169;SDS011;7685;47.406;8.540;2023-03-04T06:05:41;0.53;;;0.53;;
15169;SDS011;7685;47.406;8.540;2023-03-04T06:08:09;1.23;;;1.23;;
15169;SDS011;7685;47.406;8.540;2023-03-04T06:10:37;0.30;;;0.30;;
15169;SDS011;7685;47.406;8.540;2023-03-04T06:13:04;0.30;;;0.30;;
15169;SDS011;7685;47.406;8.540;2023-03-04T06:15:31;0.30;;;0.30;;
15169;SDS011;7685;47.406;8.540;2023-03-04T06:17:57;0.30;;;0.30;;
15169;SDS011;7685;47.406;8.540;2023-03-04T06:20:24;0.80;;;0.80;;
15169;SDS011;7685;47.406;8.540;2023-03-04T06:22:50;1.63;;;1.43;;
15169;SDS011;7685;47.406;8.540;2023-03-04T06:25:17;0.53;;;0.53;;
15169;SDS011;7685;47.406;8.540;2023-03-04T06:27:43;0.60;;;0.60;;
15169;SDS011;7685;47.406;8.540;2023-03-04T06:30:10;0.60;;;0.60;;
15169;SDS011;7685;47.406;8.540;2023-03-04T06:32:37;1.13;;;1.13;;
15169;SDS011;7685;47.406;8.540;2023-03-04T06:35:03;0.40;;;0.40;;
15169;SDS011;7685;47.406;8.540;2023-03-04T06:37:30;0.57;;;0.40;;
15169;SDS011;7685;47.406;8.540;2023-03-04T06:39:57;1.73;;;1.63;;
15169;SDS011;7685;47.406;8.540;2023-03-04T06:42:23;0.40;;;0.40;;
15169;SDS011;7685;47.406;8.540;2023-03-04T06:44:49;1.30;;;1.30;;
15169;SDS011;7685;47.406;8.540;2023-03-04T06:47:16;1.17;;;1.17;;
15169;SDS011;7685;47.406;8.540;2023-03-04T06:49:43;0.30;;;0.30;;
15169;SDS011;7685;47.406;8.540;2023-03-04T06:52:10;0.57;;;0.57;;
15169;SDS011;7685;47.406;8.540;2023-03-04T06:54:38;1.43;;;1.43;;
15169;SDS011;7685;47.406;8.540;2023-03-04T06:57:05;1.37;;;1.23;;
15169;SDS011;7685;47.406;8.540;2023-03-04T06:59:32;0.70;;;0.70;;
15169;SDS011;7685;47.406;8.540;2023-03-04T07:01:59;0.50;;;0.50;;
15169;SDS011;7685;47.406;8.540;2023-03-04T07:04:25;0.77;;;0.77;;
15169;SDS011;7685;47.406;8.540;2023-03-04T07:06:52;0.60;;;0.60;;
15169;SDS011;7685;47.406;8.540;2023-03-04T07:09:19;0.47;;;0.47;;
15169;SDS011;7685;47.406;8.540;2023-03-04T07:11:45;0.70;;;0.70;;
15169;SDS011;7685;47.406;8.540;2023-03-04T07:14:12;0.50;;;0.50;;
15169;SDS011;7685;47.406;8.540;2023-03-04T07:16:39;0.67;;;0.67;;
15169;SDS011;7685;47.406;8.540;2023-03-04T07:19:05;0.73;;;0.73;;
15169;SDS011;7685;47.406;8.540;2023-03-04T07:21:32;0.70;;;0.70;;
15169;SDS011;7685;47.406;8.540;2023-03-04T07:23:59;2.00;;;1.90;;
15169;SDS011;7685;47.406;8.540;2023-03-04T07:26:25;0.80;;;0.80;;
15169;SDS011;7685;47.406;8.540;2023-03-04T07:28:52;1.10;;;1.07;;
15169;SDS011;7685;47.406;8.540;2023-03-04T07:33:47;3.50;;;1.37;;
15169;SDS011;7685;47.406;8.540;2023-03-04T07:36:14;0.67;;;0.67;;
15169;SDS011;7685;47.406;8.540;2023-03-04T07:38:45;1.30;;;1.20;;
15169;SDS011;7685;47.406;8.540;2023-03-04T07:41:12;2.47;;;2.37;;
15169;SDS011;7685;47.406;8.540;2023-03-04T07:43:39;1.70;;;1.60;;
15169;SDS011;7685;47.406;8.540;2023-03-04T07:46:06;1.40;;;1.30;;
15169;SDS011;7685;47.406;8.540;2023-03-04T07:48:32;1.07;;;1.07;;
15169;SDS011;7685;47.406;8.540;2023-03-04T07:51:07;3.03;;;2.37;;
15169;SDS011;7685;47.406;8.540;2023-03-04T07:53:34;1.70;;;1.60;;
15169;SDS011;7685;47.406;8.540;2023-03-04T07:56:02;0.90;;;0.90;;
15169;SDS011;7685;47.406;8.540;2023-03-04T07:58:29;3.90;;;1.83;;
15169;SDS011;7685;47.406;8.540;2023-03-04T08:00:56;13.97;;;3.10;;
15169;SDS011;7685;47.406;8.540;2023-03-04T08:03:22;3.17;;;2.80;;
15169;SDS011;7685;47.406;8.540;2023-03-04T08:05:49;1.40;;;1.33;;
15169;SDS011;7685;47.406;8.540;2023-03-04T08:08:16;0.57;;;0.57;;
15169;SDS011;7685;47.406;8.540;2023-03-04T08:10:44;1.63;;;1.53;;
15169;SDS011;7685;47.406;8.540;2023-03-04T08:13:13;2.43;;;2.23;;
15169;SDS011;7685;47.406;8.540;2023-03-04T08:15:40;1.53;;;1.37;;
15169;SDS011;7685;47.406;8.540;2023-03-04T08:18:07;1.17;;;1.17;;
15169;SDS011;7685;47.406;8.540;2023-03-04T08:20:34;3.27;;;2.97;;
15169;SDS011;7685;47.406;8.540;2023-03-04T08:23:01;1.67;;;1.57;;
15169;SDS011;7685;47.406;8.540;2023-03-04T08:25:27;2.00;;;1.90;;
15169;SDS011;7685;47.406;8.540;2023-03-04T08:27:54;1.93;;;1.40;;
15169;SDS011;7685;47.406;8.540;2023-03-04T08:30:20;1.73;;;1.30;;
15169;SDS011;7685;47.406;8.540;2023-03-04T08:32:47;1.33;;;1.33;;
15169;SDS011;7685;47.406;8.540;2023-03-04T08:35:14;2.40;;;2.30;;
15169;SDS011;7685;47.406;8.540;2023-03-04T08:37:40;2.40;;;2.20;;
15169;SDS011;7685;47.406;8.540;2023-03-04T08:40:07;7.70;;;2.67;;
15169;SDS011;7685;47.406;8.540;2023-03-04T08:42:35;1.20;;;1.10;;
15169;SDS011;7685;47.406;8.540;2023-03-04T08:45:02;4.17;;;3.63;;
15169;SDS011;7685;47.406;8.540;2023-03-04T08:47:29;5.60;;;3.23;;
15169;SDS011;7685;47.406;8.540;2023-03-04T08:49:55;2.17;;;1.90;;
15169;SDS011;7685;47.406;8.540;2023-03-04T08:52:23;2.40;;;2.13;;
15169;SDS011;7685;47.406;8.540;2023-03-04T08:54:50;2.20;;;2.03;;
15169;SDS011;7685;47.406;8.540;2023-03-04T08:57:16;1.50;;;1.40;;
15169;SDS011;7685;47.406;8.540;2023-03-04T08:59:43;3.43;;;2.90;;
15169;SDS011;7685;47.406;8.540;2023-03-04T09:02:09;3.80;;;2.57;;
15169;SDS011;7685;47.406;8.540;2023-03-04T09:04:36;3.27;;;3.00;;
15169;SDS011;7685;47.406;8.540;2023-03-04T09:07:02;5.27;;;2.60;;
15169;SDS011;7685;47.406;8.540;2023-03-04T09:09:29;2.50;;;1.90;;
15169;SDS011;7685;47.406;8.540;2023-03-04T09:11:56;5.93;;;3.83;;
15169;SDS011;7685;47.406;8.540;2023-03-04T09:14:22;2.27;;;2.07;;
15169;SDS011;7685;47.406;8.540;2023-03-04T09:16:49;2.70;;;2.43;;
15169;SDS011;7685;47.406;8.540;2023-03-04T09:19:15;2.57;;;2.37;;
15169;SDS011;7685;47.406;8.540;2023-03-04T09:21:42;1.70;;;1.60;;
15169;SDS011;7685;47.406;8.540;2023-03-04T09:24:09;3.70;;;3.40;;
15169;SDS011;7685;47.406;8.540;2023-03-04T09:26:35;1.07;;;1.07;;
15169;SDS011;7685;47.406;8.540;2023-03-04T09:29:02;1.53;;;1.43;;
15169;SDS011;7685;47.406;8.540;2023-03-04T09:31:29;3.80;;;2.83;;
15169;SDS011;7685;47.406;8.540;2023-03-04T09:33:56;6.33;;;2.37;;
15169;SDS011;7685;47.406;8.540;2023-03-04T09:36:24;3.60;;;2.40;;
15169;SDS011;7685;47.406;8.540;2023-03-04T09:38:59;4.57;;;2.87;;
15169;SDS011;7685;47.406;8.540;2023-03-04T09:42:00;2.50;;;2.40;;
15169;SDS011;7685;47.406;8.540;2023-03-04T09:46:49;2.30;;;1.60;;
15169;SDS011;7685;47.406;8.540;2023-03-04T09:49:17;2.90;;;2.70;;
15169;SDS011;7685;47.406;8.540;2023-03-04T09:54:30;2.13;;;2.03;;
15169;SDS011;7685;47.406;8.540;2023-03-04T09:57:14;5.20;;;4.80;;
15169;SDS011;7685;47.406;8.540;2023-03-04T09:59:49;5.43;;;2.67;;
15169;SDS011;7685;47.406;8.540;2023-03-04T10:02:34;2.47;;;2.37;;
15169;SDS011;7685;47.406;8.540;2023-03-04T10:05:12;4.70;;;3.80;;
15169;SDS011;7685;47.406;8.540;2023-03-04T10:07:42;3.77;;;3.40;;
15169;SDS011;7685;47.406;8.540;2023-03-04T10:10:12;3.80;;;3.40;;
15169;SDS011;7685;47.406;8.540;2023-03-04T10:13:01;2.73;;;2.60;;
15169;SDS011;7685;47.406;8.540;2023-03-04T10:18:02;2.80;;;2.53;;
15169;SDS011;7685;47.406;8.540;2023-03-04T10:23:24;3.80;;;3.50;;
15169;SDS011;7685;47.406;8.540;2023-03-04T10:25:53;3.50;;;3.23;;
15169;SDS011;7685;47.406;8.540;2023-03-04T10:28:24;1.97;;;1.87;;
15169;SDS011;7685;47.406;8.540;2023-03-04T10:33:59;3.40;;;3.00;;
15169;SDS011;7685;47.406;8.540;2023-03-04T10:39:06;6.27;;;3.20;;
15169;SDS011;7685;47.406;8.540;2023-03-04T10:41:35;4.97;;;3.27;;
15169;SDS011;7685;47.406;8.540;2023-03-04T10:46:30;4.83;;;4.30;;
15169;SDS011;7685;47.406;8.540;2023-03-04T10:48:57;4.63;;;3.87;;
15169;SDS011;7685;47.406;8.540;2023-03-04T10:51:25;10.50;;;5.60;;
15169;SDS011;7685;47.406;8.540;2023-03-04T10:54:03;5.57;;;5.17;;
15169;SDS011;7685;47.406;8.540;2023-03-04T10:56:37;4.20;;;3.90;;
15169;SDS011;7685;47.406;8.540;2023-03-04T11:01:52;7.68;;;4.53;;
15169;SDS011;7685;47.406;8.540;2023-03-04T11:04:21;5.28;;;3.17;;
15169;SDS011;7685;47.406;8.540;2023-03-04T11:06:50;4.07;;;3.55;;
15169;SDS011;7685;47.406;8.540;2023-03-04T11:09:27;3.83;;;3.58;;
15169;SDS011;7685;47.406;8.540;2023-03-04T11:11:59;6.57;;;4.20;;
15169;SDS011;7685;47.406;8.540;2023-03-04T11:14:28;3.45;;;3.15;;
15169;SDS011;7685;47.406;8.540;2023-03-04T11:16:58;3.33;;;2.85;;
15169;SDS011;7685;47.406;8.540;2023-03-04T11:19:37;4.13;;;3.72;;
15169;SDS011;7685;47.406;8.540;2023-03-04T11:22:08;4.45;;;4.10;;
15169;SDS011;7685;47.406;8.540;2023-03-04T11:24:35;5.40;;;5.05;;
15169;SDS011;7685;47.406;8.540;2023-03-04T11:27:14;7.00;;;4.30;;
15169;SDS011;7685;47.406;8.540;2023-03-04T11:29:50;8.52;;;3.90;;
15169;SDS011;7685;47.406;8.540;2023-03-04T11:32:21;4.45;;;4.15;;
15169;SDS011;7685;47.406;8.540;2023-03-04T11:37:49;5.38;;;4.28;;
15169;SDS011;7685;47.406;8.540;2023-03-04T11:42:52;3.78;;;3.47;;
15169;SDS011;7685;47.406;8.540;2023-03-04T11:50:29;6.22;;;3.45;;
15169;SDS011;7685;47.406;8.540;2023-03-04T11:53:19;3.83;;;3.53;;
15169;SDS011;7685;47.406;8.540;2023-03-04T11:55:59;5.00;;;4.60;;
15169;SDS011;7685;47.406;8.540;2023-03-04T12:07:41;5.85;;;4.18;;
15169;SDS011;7685;47.406;8.540;2023-03-04T12:10:14;4.07;;;3.72;;
15169;SDS011;7685;47.406;8.540;2023-03-04T12:12:52;2.58;;;2.40;;
15169;SDS011;7685;47.406;8.540;2023-03-04T12:15:24;4.13;;;3.65;;
15169;SDS011;7685;47.406;8.540;2023-03-04T12:21:02;6.22;;;3.58;;
15169;SDS011;7685;47.406;8.540;2023-03-04T12:26:29;4.10;;;3.88;;
15169;SDS011;7685;47.406;8.540;2023-03-04T12:31:33;6.38;;;3.97;;
15169;SDS011;7685;47.406;8.540;2023-03-04T12:39:13;6.45;;;4.80;;
15169;SDS011;7685;47.406;8.540;2023-03-04T12:44:29;4.03;;;3.40;;
15169;SDS011;7685;47.406;8.540;2023-03-04T12:54:40;3.33;;;2.92;;
15169;SDS011;7685;47.406;8.540;2023-03-04T12:57:11;4.97;;;4.47;;
15169;SDS011;7685;47.406;8.540;2023-03-04T12:59:42;4.85;;;4.38;;
15169;SDS011;7685;47.406;8.540;2023-03-04T13:08:13;3.50;;;3.25;;
15169;SDS011;7685;47.406;8.540;2023-03-04T13:10:41;4.75;;;3.85;;
15169;SDS011;7685;47.406;8.540;2023-03-04T13:16:02;5.90;;;4.78;;
15169;SDS011;7685;47.406;8.540;2023-03-04T13:18:49;4.32;;;3.92;;
15169;SDS011;7685;47.406;8.540;2023-03-04T13:21:20;3.13;;;2.83;;
15169;SDS011;7685;47.406;8.540;2023-03-04T13:23:49;4.18;;;3.80;;
15169;SDS011;7685;47.406;8.540;2023-03-04T13:26:26;4.10;;;3.78;;
15169;SDS011;7685;47.406;8.540;2023-03-04T13:42:49;3.08;;;2.92;;
15169;SDS011;7685;47.406;8.540;2023-03-04T13:45:37;6.88;;;3.92;;
15169;SDS011;7685;47.406;8.540;2023-03-04T13:48:07;3.42;;;3.13;;
15169;SDS011;7685;47.406;8.540;2023-03-04T13:50:49;3.33;;;2.95;;
15169;SDS011;7685;47.406;8.540;2023-03-04T13:53:36;4.30;;;3.90;;
15169;SDS011;7685;47.406;8.540;2023-03-04T13:58:37;5.03;;;4.63;;
15169;SDS011;7685;47.406;8.540;2023-03-04T14:01:04;4.97;;;4.13;;
15169;SDS011;7685;47.406;8.540;2023-03-04T14:03:33;3.15;;;2.95;;
15169;SDS011;7685;47.406;8.540;2023-03-04T14:08:36;3.55;;;3.22;;
15169;SDS011;7685;47.406;8.540;2023-03-04T14:11:03;3.25;;;2.85;;
15169;SDS011;7685;47.406;8.540;2023-03-04T14:13:30;2.75;;;2.55;;
15169;SDS011;7685;47.406;8.540;2023-03-04T14:15:57;3.22;;;3.03;;
15169;SDS011;7685;47.406;8.540;2023-03-04T14:18:24;2.35;;;2.25;;
15169;SDS011;7685;47.406;8.540;2023-03-04T14:20:51;2.63;;;2.42;;
15169;SDS011;7685;47.406;8.540;2023-03-04T14:23:32;3.78;;;2.83;;
15169;SDS011;7685;47.406;8.540;2023-03-04T14:26:09;4.60;;;3.53;;
15169;SDS011;7685;47.406;8.540;2023-03-04T14:28:44;1.92;;;1.83;;
15169;SDS011;7685;47.406;8.540;2023-03-04T14:31:15;2.53;;;2.33;;
15169;SDS011;7685;47.406;8.540;2023-03-04T14:33:44;3.33;;;3.03;;
15169;SDS011;7685;47.406;8.540;2023-03-04T14:36:21;2.72;;;2.53;;
15169;SDS011;7685;47.406;8.540;2023-03-04T14:38:53;5.00;;;3.20;;
15169;SDS011;7685;47.406;8.540;2023-03-04T14:46:47;2.47;;;2.28;;
15169;SDS011;7685;47.406;8.540;2023-03-04T14:49:33;6.82;;;3.30;;
15169;SDS011;7685;47.406;8.540;2023-03-04T14:52:01;3.75;;;2.97;;
15169;SDS011;7685;47.406;8.540;2023-03-04T14:54:29;5.55;;;3.17;;
15169;SDS011;7685;47.406;8.540;2023-03-04T14:56:57;2.95;;;2.75;;
15169;SDS011;7685;47.406;8.540;2023-03-04T14:59:31;3.47;;;2.92;;
15169;SDS011;7685;47.406;8.540;2023-03-04T15:04:46;9.00;;;3.45;;
15169;SDS011;7685;47.406;8.540;2023-03-04T15:07:14;3.72;;;3.42;;
15169;SDS011;7685;47.406;8.540;2023-03-04T15:09:42;4.32;;;2.22;;
15169;SDS011;7685;47.406;8.540;2023-03-04T15:12:22;4.85;;;3.65;;
15169;SDS011;7685;47.406;8.540;2023-03-04T15:14:52;2.72;;;2.53;;
15169;SDS011;7685;47.406;8.540;2023-03-04T15:17:31;3.17;;;2.20;;
